createdAt,value
2017-06-17T00:00:30.123Z,0
2017-06-17T00:01:10.991Z,0
2017-06-17T00:01:51.871Z,0
2017-06-17T00:02:32.764Z,0
2017-06-17T00:03:13.670Z,0
2017-06-17T00:03:54.549Z,0
2017-06-17T00:04:35.444Z,0
2017-06-17T00:05:16.339Z,0
2017-06-17T00:05:57.214Z,0
2017-06-17T00:06:38.095Z,0
2017-06-17T00:07:18.989Z,0
2017-06-17T00:07:59.877Z,0
2017-06-17T00:08:40.770Z,0
2017-06-17T00:09:21.656Z,0
2017-06-17T00:10:02.585Z,0
2017-06-17T00:10:43.481Z,0
2017-06-17T00:11:24.367Z,0
2017-06-17T00:12:05.267Z,0
2017-06-17T00:12:46.154Z,0
2017-06-17T00:13:27.040Z,0
2017-06-17T00:14:07.937Z,0
2017-06-17T00:14:48.836Z,0
2017-06-17T00:15:29.739Z,0
2017-06-17T00:16:10.632Z,0
2017-06-17T00:16:51.511Z,0
2017-06-17T00:17:32.403Z,0
2017-06-17T00:18:13.290Z,0
2017-06-17T00:18:54.161Z,0
2017-06-17T00:19:35.060Z,0
2017-06-17T00:20:15.951Z,0
2017-06-17T00:20:56.819Z,0
2017-06-17T00:21:37.702Z,0
2017-06-17T00:22:18.596Z,0
2017-06-17T00:22:59.497Z,0
2017-06-17T00:23:40.407Z,0
2017-06-17T00:24:21.304Z,0
2017-06-17T00:25:02.179Z,0
2017-06-17T00:25:43.086Z,0
2017-06-17T00:26:23.979Z,0
2017-06-17T00:27:04.856Z,0
2017-06-17T00:27:45.736Z,0
2017-06-17T00:28:26.632Z,0
2017-06-17T00:29:07.559Z,0
2017-06-17T00:29:48.455Z,0
2017-06-17T00:30:29.342Z,0
2017-06-17T00:31:10.235Z,0
2017-06-17T00:31:51.130Z,0
2017-06-17T00:32:32.022Z,0
2017-06-17T00:33:12.910Z,0
2017-06-17T00:33:53.808Z,0
2017-06-17T00:34:34.694Z,0
2017-06-17T00:35:15.591Z,0
2017-06-17T00:35:56.473Z,0
2017-06-17T00:36:37.407Z,0
2017-06-17T00:37:18.292Z,0
2017-06-17T00:37:59.182Z,0
2017-06-17T00:38:40.061Z,0
2017-06-17T00:39:20.959Z,0
2017-06-17T00:40:01.827Z,0
2017-06-17T00:40:42.713Z,0
2017-06-17T00:41:23.590Z,0
2017-06-17T00:42:04.477Z,0
2017-06-17T00:42:45.396Z,0
2017-06-17T00:43:26.259Z,0
2017-06-17T00:44:07.153Z,0
2017-06-17T00:44:48.036Z,0
2017-06-17T00:45:28.938Z,0
2017-06-17T00:46:09.838Z,0
2017-06-17T00:46:50.718Z,0
2017-06-17T00:47:31.614Z,0
2017-06-17T00:48:12.507Z,0
2017-06-17T00:48:53.413Z,0
2017-06-17T00:49:34.292Z,0
2017-06-17T00:50:15.183Z,0
2017-06-17T00:50:56.074Z,0
2017-06-17T00:51:36.947Z,0
2017-06-17T00:52:17.838Z,0
2017-06-17T00:52:58.729Z,0
2017-06-17T00:53:39.622Z,0
2017-06-17T00:54:20.510Z,0
2017-06-17T00:55:01.391Z,0
2017-06-17T00:55:42.286Z,0
2017-06-17T00:56:23.172Z,0
2017-06-17T00:57:04.099Z,0
2017-06-17T00:57:44.987Z,0
2017-06-17T00:58:25.918Z,0
2017-06-17T00:59:06.824Z,0
2017-06-17T00:59:47.718Z,0
2017-06-17T01:00:28.614Z,0
2017-06-17T01:01:09.503Z,0
2017-06-17T01:01:50.382Z,0
2017-06-17T01:02:31.311Z,0
2017-06-17T01:03:12.182Z,0
2017-06-17T01:03:53.070Z,0
2017-06-17T01:04:33.953Z,0
2017-06-17T01:05:14.833Z,0
2017-06-17T01:05:55.718Z,0
2017-06-17T01:06:36.602Z,0
2017-06-17T01:07:17.507Z,0
2017-06-17T01:07:58.377Z,0
2017-06-17T01:08:39.259Z,0
2017-06-17T01:09:20.143Z,0
2017-06-17T01:10:01.065Z,0
2017-06-17T01:10:41.921Z,0
2017-06-17T01:11:22.807Z,0
2017-06-17T01:12:03.720Z,0
2017-06-17T01:12:44.607Z,0
2017-06-17T01:13:25.508Z,0
2017-06-17T01:14:06.395Z,0
2017-06-17T01:14:47.279Z,0
2017-06-17T01:15:28.168Z,0
2017-06-17T01:16:09.097Z,0
2017-06-17T01:16:49.981Z,0
2017-06-17T01:17:30.875Z,0
2017-06-17T01:18:11.770Z,0
2017-06-17T01:18:52.660Z,0
2017-06-17T01:19:33.546Z,0
2017-06-17T01:20:14.442Z,0
2017-06-17T01:20:55.329Z,0
2017-06-17T01:21:36.220Z,0
2017-06-17T01:22:17.119Z,0
2017-06-17T01:22:57.997Z,0
2017-06-17T01:23:38.871Z,0
2017-06-17T01:24:19.761Z,0
2017-06-17T01:25:00.666Z,0
2017-06-17T01:25:41.557Z,0
2017-06-17T01:26:22.447Z,0
2017-06-17T01:27:03.340Z,0
2017-06-17T01:27:44.217Z,0
2017-06-17T01:28:25.113Z,0
2017-06-17T01:29:05.995Z,0
2017-06-17T01:29:46.883Z,0
2017-06-17T01:30:27.774Z,0
2017-06-17T01:31:08.663Z,0
2017-06-17T01:31:49.542Z,0
2017-06-17T01:32:30.438Z,0
2017-06-17T01:33:11.325Z,0
2017-06-17T01:33:52.220Z,0
2017-06-17T01:34:33.108Z,0
2017-06-17T01:35:13.991Z,0
2017-06-17T01:35:54.871Z,0
2017-06-17T01:36:35.757Z,0
2017-06-17T01:37:16.644Z,0
2017-06-17T01:37:57.524Z,0
2017-06-17T01:38:38.418Z,0
2017-06-17T01:39:19.297Z,0
2017-06-17T01:40:00.163Z,0
2017-06-17T01:40:41.036Z,0
2017-06-17T01:41:21.930Z,0
2017-06-17T01:42:02.803Z,0
2017-06-17T01:42:43.699Z,0
2017-06-17T01:43:24.578Z,0
2017-06-17T01:44:05.476Z,0
2017-06-17T01:44:46.358Z,0
2017-06-17T01:45:27.246Z,0
2017-06-17T01:46:08.128Z,0
2017-06-17T01:46:49.032Z,0
2017-06-17T01:47:29.918Z,0
2017-06-17T01:48:10.829Z,0
2017-06-17T01:48:51.710Z,0
2017-06-17T01:49:32.600Z,0
2017-06-17T01:50:13.502Z,0
2017-06-17T01:50:54.379Z,0
2017-06-17T01:51:35.260Z,0
2017-06-17T01:52:16.258Z,0
2017-06-17T01:52:57.152Z,0
2017-06-17T01:53:38.048Z,0
2017-06-17T01:54:18.934Z,0
2017-06-17T01:54:59.824Z,0
2017-06-17T01:55:40.746Z,0
2017-06-17T01:56:21.642Z,0
2017-06-17T01:57:02.522Z,0
2017-06-17T01:57:43.402Z,0
2017-06-17T01:58:24.284Z,0
2017-06-17T01:59:05.172Z,0
2017-06-17T01:59:46.060Z,0
2017-06-17T02:01:44.836Z,0
2017-06-17T02:02:25.716Z,0
2017-06-17T02:03:06.623Z,0
2017-06-17T02:03:47.499Z,0
2017-06-17T02:04:28.384Z,0
2017-06-17T02:05:09.275Z,0
2017-06-17T02:05:50.203Z,0
2017-06-17T02:06:31.093Z,0
2017-06-17T02:07:11.975Z,0
2017-06-17T02:07:52.860Z,0
2017-06-17T02:08:33.743Z,0
2017-06-17T02:09:14.648Z,0
2017-06-17T02:09:55.534Z,0
2017-06-17T02:10:36.415Z,0
2017-06-17T02:11:17.303Z,0
2017-06-17T02:11:58.193Z,0
2017-06-17T02:12:39.079Z,0
2017-06-17T02:13:19.978Z,0
2017-06-17T02:14:00.864Z,0
2017-06-17T02:14:41.749Z,0
2017-06-17T02:15:22.674Z,0
2017-06-17T02:16:03.558Z,0
2017-06-17T02:16:44.448Z,0
2017-06-17T02:17:25.334Z,0
2017-06-17T02:18:06.219Z,0
2017-06-17T02:18:47.100Z,0
2017-06-17T02:19:28.007Z,0
2017-06-17T02:20:08.954Z,0
2017-06-17T02:20:49.814Z,0
2017-06-17T02:21:30.708Z,0
2017-06-17T02:22:11.595Z,0
2017-06-17T02:22:52.478Z,0
2017-06-17T02:23:33.363Z,0
2017-06-17T02:24:14.245Z,0
2017-06-17T02:24:55.125Z,0
2017-06-17T02:25:36.009Z,0
2017-06-17T02:26:16.889Z,0
2017-06-17T02:26:57.756Z,0
2017-06-17T02:27:38.645Z,0
2017-06-17T02:28:19.525Z,0
2017-06-17T02:29:00.456Z,0
2017-06-17T02:29:41.338Z,0
2017-06-17T02:30:22.224Z,0
2017-06-17T02:31:03.109Z,0
2017-06-17T02:31:43.997Z,0
2017-06-17T02:32:24.887Z,0
2017-06-17T02:33:05.758Z,0
2017-06-17T02:33:46.636Z,0
2017-06-17T02:34:27.522Z,0
2017-06-17T02:35:08.478Z,0
2017-06-17T02:35:49.378Z,0
2017-06-17T02:36:30.238Z,0
2017-06-17T02:37:11.115Z,0
2017-06-17T02:37:52.006Z,0
2017-06-17T02:38:32.894Z,0
2017-06-17T02:39:13.781Z,0
2017-06-17T02:39:54.679Z,0
2017-06-17T02:40:35.571Z,0
2017-06-17T02:41:16.469Z,0
2017-06-17T02:41:57.344Z,0
2017-06-17T02:42:38.223Z,0
2017-06-17T02:43:19.125Z,0
2017-06-17T02:44:00.002Z,0
2017-06-17T02:44:40.881Z,0
2017-06-17T02:45:21.751Z,0
2017-06-17T02:46:02.642Z,0
2017-06-17T02:46:43.516Z,0
2017-06-17T02:47:24.397Z,0
2017-06-17T02:48:05.279Z,0
2017-06-17T02:48:46.161Z,0
2017-06-17T02:49:27.051Z,0
2017-06-17T02:50:07.936Z,0
2017-06-17T02:50:48.841Z,0
2017-06-17T02:51:29.739Z,0
2017-06-17T02:52:10.617Z,0
2017-06-17T02:52:51.599Z,5
2017-06-17T02:53:32.510Z,5
2017-06-17T02:54:13.382Z,5
2017-06-17T02:54:54.262Z,5
2017-06-17T02:55:35.145Z,5
2017-06-17T02:56:16.037Z,5
2017-06-17T02:56:56.923Z,5
2017-06-17T02:57:37.802Z,5
2017-06-17T02:58:18.690Z,5
2017-06-17T02:58:59.569Z,5
2017-06-17T02:59:40.482Z,5
2017-06-17T03:00:21.357Z,5
2017-06-17T03:01:02.243Z,5
2017-06-17T03:01:43.131Z,5
2017-06-17T03:02:24.034Z,5
2017-06-17T03:03:04.941Z,5
2017-06-17T03:03:45.829Z,5
2017-06-17T03:04:26.736Z,5
2017-06-17T03:05:07.623Z,5
2017-06-17T03:05:48.504Z,5
2017-06-17T03:06:29.385Z,5
2017-06-17T03:07:10.286Z,5
2017-06-17T03:07:51.175Z,5
2017-06-17T03:08:32.065Z,5
2017-06-17T03:09:12.953Z,5
2017-06-17T03:09:53.847Z,5
2017-06-17T03:10:34.724Z,10
2017-06-17T03:11:15.619Z,10
2017-06-17T03:11:56.504Z,10
2017-06-17T03:12:37.393Z,10
2017-06-17T03:13:18.286Z,10
2017-06-17T03:13:59.191Z,10
2017-06-17T03:14:40.070Z,10
2017-06-17T03:15:20.964Z,10
2017-06-17T03:16:01.842Z,10
2017-06-17T03:16:42.732Z,10
2017-06-17T03:17:23.616Z,10
2017-06-17T03:18:04.512Z,10
2017-06-17T03:18:45.392Z,10
2017-06-17T03:19:26.286Z,15
2017-06-17T03:20:07.177Z,10
2017-06-17T03:20:48.090Z,10
2017-06-17T03:21:28.973Z,10
2017-06-17T03:22:09.872Z,10
2017-06-17T03:22:50.785Z,15
2017-06-17T03:23:31.664Z,15
2017-06-17T03:24:12.547Z,15
2017-06-17T03:24:53.452Z,15
2017-06-17T03:25:34.345Z,15
2017-06-17T03:26:15.254Z,15
2017-06-17T03:26:56.110Z,15
2017-06-17T03:27:36.998Z,10
2017-06-17T03:28:17.894Z,15
2017-06-17T03:28:58.823Z,15
2017-06-17T03:29:39.679Z,20
2017-06-17T03:30:20.594Z,20
2017-06-17T03:31:01.491Z,20
2017-06-17T03:31:42.376Z,20
2017-06-17T03:32:23.256Z,20
2017-06-17T03:33:04.142Z,15
2017-06-17T03:33:45.027Z,20
2017-06-17T03:34:25.910Z,20
2017-06-17T03:35:06.800Z,25
2017-06-17T03:35:47.702Z,25
2017-06-17T03:36:28.588Z,25
2017-06-17T03:37:09.495Z,25
2017-06-17T03:37:50.373Z,30
2017-06-17T03:38:31.259Z,25
2017-06-17T03:39:12.150Z,20
2017-06-17T03:39:53.052Z,25
2017-06-17T03:40:33.916Z,25
2017-06-17T03:41:14.824Z,25
2017-06-17T03:41:55.684Z,25
2017-06-17T03:42:36.671Z,25
2017-06-17T03:43:17.546Z,30
2017-06-17T03:43:58.437Z,30
2017-06-17T03:44:39.322Z,30
2017-06-17T03:45:20.221Z,30
2017-06-17T03:46:01.109Z,30
2017-06-17T03:46:41.995Z,35
2017-06-17T03:47:22.905Z,30
2017-06-17T03:48:03.760Z,30
2017-06-17T03:48:44.630Z,30
2017-06-17T03:49:25.507Z,35
2017-06-17T03:50:06.386Z,35
2017-06-17T03:50:47.287Z,30
2017-06-17T03:51:28.194Z,25
2017-06-17T03:52:09.085Z,25
2017-06-17T03:52:49.966Z,25
2017-06-17T03:53:30.855Z,35
2017-06-17T03:54:11.737Z,35
2017-06-17T03:54:52.622Z,30
2017-06-17T03:55:33.499Z,30
2017-06-17T03:56:14.387Z,25
2017-06-17T03:56:55.277Z,25
2017-06-17T03:57:36.158Z,25
2017-06-17T03:58:17.055Z,25
2017-06-17T03:58:57.941Z,25
2017-06-17T03:59:38.833Z,25
2017-06-17T04:00:19.726Z,30
2017-06-17T04:01:00.615Z,30
2017-06-17T04:01:41.561Z,30
2017-06-17T04:02:22.470Z,35
2017-06-17T04:03:03.360Z,30
2017-06-17T04:03:44.274Z,30
2017-06-17T04:04:25.166Z,40
2017-06-17T04:05:06.054Z,35
2017-06-17T04:05:46.960Z,30
2017-06-17T04:06:27.852Z,30
2017-06-17T04:07:08.728Z,30
2017-06-17T04:07:49.610Z,30
2017-06-17T04:08:30.495Z,25
2017-06-17T04:09:11.385Z,30
2017-06-17T04:09:52.288Z,35
2017-06-17T04:10:33.173Z,35
2017-06-17T04:11:14.051Z,30
2017-06-17T04:11:54.934Z,30
2017-06-17T04:12:35.828Z,35
2017-06-17T04:13:16.714Z,30
2017-06-17T04:13:57.598Z,30
2017-06-17T04:14:38.483Z,35
2017-06-17T04:15:19.367Z,45
2017-06-17T04:16:00.250Z,45
2017-06-17T04:16:41.139Z,35
2017-06-17T04:17:22.021Z,35
2017-06-17T04:18:02.897Z,40
2017-06-17T04:18:43.803Z,45
2017-06-17T04:19:24.674Z,55
2017-06-17T04:20:05.567Z,55
2017-06-17T04:20:46.457Z,50
2017-06-17T04:21:27.359Z,45
2017-06-17T04:22:08.253Z,45
2017-06-17T04:22:49.149Z,45
2017-06-17T04:23:30.036Z,50
2017-06-17T04:24:10.925Z,60
2017-06-17T04:24:51.805Z,60
2017-06-17T04:25:32.700Z,50
2017-06-17T04:26:13.578Z,45
2017-06-17T04:26:54.462Z,45
2017-06-17T04:27:35.364Z,50
2017-06-17T04:28:16.245Z,50
2017-06-17T04:28:57.120Z,50
2017-06-17T04:29:38.095Z,55
2017-06-17T04:30:18.983Z,60
2017-06-17T04:30:59.860Z,60
2017-06-17T04:31:40.773Z,60
2017-06-17T04:32:21.663Z,60
2017-06-17T04:33:02.544Z,55
2017-06-17T04:33:43.450Z,50
2017-06-17T04:34:24.333Z,40
2017-06-17T04:35:05.214Z,40
2017-06-17T04:35:46.077Z,35
2017-06-17T04:36:26.960Z,45
2017-06-17T04:37:07.848Z,35
2017-06-17T04:37:48.749Z,35
2017-06-17T04:38:29.635Z,45
2017-06-17T04:39:10.523Z,50
2017-06-17T04:39:51.417Z,55
2017-06-17T04:40:32.315Z,60
2017-06-17T04:41:13.203Z,55
2017-06-17T04:41:54.099Z,50
2017-06-17T04:42:34.984Z,45
2017-06-17T04:43:15.877Z,45
2017-06-17T04:43:56.772Z,50
2017-06-17T04:44:37.644Z,50
2017-06-17T04:45:18.534Z,45
2017-06-17T04:45:59.429Z,50
2017-06-17T04:46:40.313Z,60
2017-06-17T04:47:21.227Z,65
2017-06-17T04:48:02.113Z,75
2017-06-17T04:48:43.015Z,80
2017-06-17T04:49:23.913Z,80
2017-06-17T04:50:04.812Z,80
2017-06-17T04:50:45.715Z,80
2017-06-17T04:51:26.599Z,80
2017-06-17T04:52:07.478Z,85
2017-06-17T04:52:48.358Z,90
2017-06-17T04:53:29.305Z,80
2017-06-17T04:54:10.199Z,85
2017-06-17T04:54:51.082Z,95
2017-06-17T04:55:32.009Z,90
2017-06-17T04:56:12.927Z,85
2017-06-17T04:56:53.892Z,80
2017-06-17T04:57:34.742Z,85
2017-06-17T04:59:48.924Z,75
2017-06-17T05:00:29.839Z,65
2017-06-17T05:01:10.728Z,65
2017-06-17T05:01:51.604Z,80
2017-06-17T05:02:32.497Z,90
2017-06-17T05:03:13.382Z,100
2017-06-17T05:03:54.254Z,100
2017-06-17T05:04:35.139Z,90
2017-06-17T05:05:16.039Z,90
2017-06-17T05:05:56.926Z,100
2017-06-17T05:06:37.811Z,110
2017-06-17T05:07:18.690Z,120
2017-06-17T05:07:59.591Z,125
2017-06-17T05:08:40.462Z,125
2017-06-17T05:09:21.378Z,120
2017-06-17T05:10:02.265Z,120
2017-06-17T05:10:43.137Z,125
2017-06-17T05:11:24.051Z,125
2017-06-17T05:12:04.927Z,125
2017-06-17T05:12:45.805Z,135
2017-06-17T05:13:26.684Z,130
2017-06-17T05:14:07.581Z,105
2017-06-17T05:14:48.475Z,110
2017-06-17T05:15:29.548Z,110
2017-06-17T05:16:10.520Z,110
2017-06-17T05:16:51.393Z,110
2017-06-17T05:17:32.281Z,130
2017-06-17T05:18:13.177Z,145
2017-06-17T05:18:54.173Z,160
2017-06-17T05:19:35.067Z,165
2017-06-17T05:20:15.956Z,160
2017-06-17T05:20:56.830Z,150
2017-06-17T05:21:37.691Z,150
2017-06-17T05:22:18.582Z,140
2017-06-17T05:22:59.478Z,125
2017-06-17T05:23:40.361Z,130
2017-06-17T05:24:21.267Z,135
2017-06-17T05:25:02.146Z,135
2017-06-17T05:25:43.060Z,135
2017-06-17T05:27:41.810Z,180
2017-06-17T05:28:22.701Z,175
2017-06-17T05:29:03.602Z,175
2017-06-17T05:29:44.483Z,200
2017-06-17T05:30:25.363Z,215
2017-06-17T05:31:06.255Z,210
2017-06-17T05:31:47.775Z,180
2017-06-17T05:32:28.685Z,195
2017-06-17T05:33:09.579Z,205
2017-06-17T05:33:50.476Z,205
2017-06-17T05:34:31.378Z,210
2017-06-17T05:35:12.271Z,195
2017-06-17T05:35:53.147Z,195
2017-06-17T05:36:34.028Z,215
2017-06-17T05:37:14.942Z,220
2017-06-17T05:37:55.832Z,230
2017-06-17T05:38:36.741Z,245
2017-06-17T05:39:17.627Z,230
2017-06-17T05:39:58.494Z,220
2017-06-17T05:40:39.369Z,235
2017-06-17T05:41:20.288Z,245
2017-06-17T05:42:01.167Z,220
2017-06-17T05:42:42.056Z,210
2017-06-17T05:43:22.954Z,210
2017-06-17T05:44:03.841Z,210
2017-06-17T05:44:44.712Z,215
2017-06-17T05:45:25.606Z,185
2017-06-17T05:46:06.502Z,175
2017-06-17T05:46:47.378Z,190
2017-06-17T05:47:28.250Z,175
2017-06-17T05:49:37.218Z,200
2017-06-17T05:50:18.119Z,200
2017-06-17T05:50:58.989Z,200
2017-06-17T05:51:39.866Z,210
2017-06-17T05:52:20.750Z,240
2017-06-17T05:53:01.701Z,225
2017-06-17T05:53:42.605Z,210
2017-06-17T05:54:23.471Z,210
2017-06-17T05:55:04.336Z,255
2017-06-17T05:55:45.206Z,260
2017-06-17T05:56:26.090Z,245
2017-06-17T05:57:06.990Z,240
2017-06-17T05:57:47.874Z,235
2017-06-17T05:58:28.747Z,235
2017-06-17T05:59:09.624Z,225
2017-06-17T05:59:50.531Z,225
2017-06-17T06:00:31.404Z,220
2017-06-17T06:01:12.289Z,235
2017-06-17T06:01:53.177Z,205
2017-06-17T06:02:34.060Z,195
2017-06-17T06:03:14.947Z,180
2017-06-17T06:03:55.834Z,175
2017-06-17T06:04:36.731Z,195
2017-06-17T06:05:17.609Z,165
2017-06-17T06:05:58.500Z,155
2017-06-17T06:06:39.383Z,165
2017-06-17T06:07:20.315Z,140
2017-06-17T06:08:01.207Z,135
2017-06-17T06:08:42.085Z,165
2017-06-17T06:09:22.967Z,165
2017-06-17T06:10:03.860Z,170
2017-06-17T06:10:44.757Z,175
2017-06-17T06:11:25.631Z,175
2017-06-17T06:12:06.528Z,150
2017-06-17T06:12:47.418Z,125
2017-06-17T06:13:28.308Z,115
2017-06-17T06:14:09.183Z,105
2017-06-17T06:14:50.073Z,90
2017-06-17T06:15:30.974Z,90
2017-06-17T06:16:11.851Z,90
2017-06-17T06:16:52.740Z,110
2017-06-17T06:17:33.651Z,90
2017-06-17T06:18:14.523Z,80
2017-06-17T06:18:55.409Z,80
2017-06-17T06:19:36.300Z,100
2017-06-17T06:20:17.177Z,95
2017-06-17T06:20:58.056Z,100
2017-06-17T06:21:38.923Z,165
2017-06-17T06:22:19.798Z,170
2017-06-17T06:23:00.695Z,140
2017-06-17T06:23:41.607Z,135
2017-06-17T06:24:22.483Z,130
2017-06-17T06:25:03.361Z,130
2017-06-17T06:25:44.253Z,115
2017-06-17T06:26:25.134Z,100
2017-06-17T06:27:06.013Z,100
2017-06-17T06:27:46.902Z,95
2017-06-17T06:28:27.787Z,95
2017-06-17T06:29:08.676Z,95
2017-06-17T06:29:49.562Z,100
2017-06-17T06:30:30.478Z,100
2017-06-17T06:31:11.367Z,100
2017-06-17T06:31:52.255Z,95
2017-06-17T06:32:33.148Z,100
2017-06-17T06:33:14.043Z,165
2017-06-17T06:33:54.956Z,170
2017-06-17T06:34:35.822Z,165
2017-06-17T06:35:16.700Z,210
2017-06-17T06:35:57.617Z,230
2017-06-17T06:36:38.505Z,205
2017-06-17T06:37:19.365Z,175
2017-06-17T06:38:00.246Z,175
2017-06-17T06:38:41.130Z,195
2017-06-17T06:39:22.027Z,230
2017-06-17T06:40:02.911Z,220
2017-06-17T06:40:43.805Z,170
2017-06-17T06:41:24.691Z,145
2017-06-17T06:42:05.565Z,130
2017-06-17T06:42:46.450Z,115
2017-06-17T06:43:27.339Z,100
2017-06-17T06:44:08.236Z,110
2017-06-17T06:44:49.112Z,120
2017-06-17T06:45:29.986Z,145
2017-06-17T06:46:10.911Z,165
2017-06-17T06:46:51.801Z,170
2017-06-17T06:47:32.687Z,190
2017-06-17T06:48:13.579Z,220
2017-06-17T06:48:54.467Z,250
2017-06-17T06:49:35.393Z,265
2017-06-17T06:50:16.297Z,235
2017-06-17T06:50:57.232Z,190
2017-06-17T06:51:38.114Z,185
2017-06-17T06:52:18.999Z,180
2017-06-17T06:52:59.905Z,200
2017-06-17T06:53:40.790Z,230
2017-06-17T06:54:21.666Z,250
2017-06-17T06:55:02.558Z,270
2017-06-17T06:55:43.439Z,280
2017-06-17T06:56:24.473Z,300
2017-06-17T06:57:05.346Z,305
2017-06-17T06:57:46.203Z,330
2017-06-17T06:58:27.095Z,285
2017-06-17T06:59:07.987Z,280
2017-06-17T06:59:48.891Z,300
2017-06-17T07:00:29.768Z,315
2017-06-17T07:01:10.661Z,340
2017-06-17T07:01:51.554Z,405
2017-06-17T07:02:32.435Z,420
2017-06-17T07:03:13.339Z,365
2017-06-17T07:03:54.248Z,330
2017-06-17T07:04:35.134Z,275
2017-06-17T07:05:16.084Z,380
2017-06-17T07:05:56.975Z,240
2017-06-17T07:06:37.870Z,235
2017-06-17T07:07:18.767Z,400
2017-06-17T07:07:59.649Z,490
2017-06-17T07:08:40.559Z,1035
2017-06-17T07:09:21.467Z,705
2017-06-17T07:10:02.347Z,410
2017-06-17T07:10:43.235Z,420
2017-06-17T07:11:24.123Z,410
2017-06-17T07:12:04.997Z,345
2017-06-17T07:12:45.899Z,295
2017-06-17T07:13:26.792Z,310
2017-06-17T07:14:07.687Z,380
2017-06-17T07:14:48.599Z,435
2017-06-17T07:15:29.497Z,405
2017-06-17T07:16:10.389Z,340
2017-06-17T07:16:51.271Z,340
2017-06-17T07:17:32.165Z,365
2017-06-17T07:18:13.063Z,365
2017-06-17T07:18:53.954Z,365
2017-06-17T07:19:34.840Z,395
2017-06-17T07:20:15.743Z,430
2017-06-17T07:20:56.652Z,350
2017-06-17T07:21:37.546Z,380
2017-06-17T07:22:18.427Z,470
2017-06-17T07:22:59.311Z,525
2017-06-17T07:23:40.285Z,480
2017-06-17T07:24:21.184Z,455
2017-06-17T07:25:02.075Z,485
2017-06-17T07:25:42.954Z,520
2017-06-17T07:26:23.835Z,1265
2017-06-17T07:27:04.722Z,1105
2017-06-17T07:27:45.607Z,595
2017-06-17T07:28:26.503Z,735
2017-06-17T07:29:07.411Z,3010
2017-06-17T07:29:48.326Z,1480
2017-06-17T07:30:29.226Z,785
2017-06-17T07:31:10.118Z,680
2017-06-17T07:31:51.018Z,645
2017-06-17T07:32:31.912Z,695
2017-06-17T07:33:12.806Z,695
2017-06-17T07:33:53.697Z,1400
2017-06-17T07:34:34.589Z,1260
2017-06-17T07:35:15.485Z,1370
2017-06-17T07:35:56.380Z,725
2017-06-17T07:36:37.296Z,725
2017-06-17T07:37:18.200Z,555
2017-06-17T07:37:59.095Z,575
2017-06-17T07:38:39.983Z,595
2017-06-17T07:39:20.872Z,545
2017-06-17T07:40:01.765Z,535
2017-06-17T07:40:42.664Z,515
2017-06-17T07:41:23.562Z,525
2017-06-17T07:42:04.456Z,1070
2017-06-17T07:42:45.340Z,425
2017-06-17T07:43:26.250Z,450
2017-06-17T07:44:07.184Z,470
2017-06-17T07:44:48.059Z,1535
2017-06-17T07:45:28.951Z,2860
2017-06-17T07:46:09.838Z,2160
2017-06-17T07:46:50.742Z,3195
2017-06-17T07:47:31.643Z,665
2017-06-17T07:48:12.535Z,1305
2017-06-17T07:48:53.421Z,1500
2017-06-17T07:49:34.333Z,1360
2017-06-17T07:50:15.262Z,705
2017-06-17T07:50:56.167Z,3055
2017-06-17T07:51:37.128Z,3200
2017-06-17T07:52:18.020Z,3375
2017-06-17T07:52:58.945Z,3385
2017-06-17T07:53:39.841Z,3340
2017-06-17T07:54:20.735Z,550
2017-06-17T07:55:01.628Z,570
2017-06-17T07:55:42.518Z,585
2017-06-17T07:58:01.925Z,605
2017-06-17T07:58:42.829Z,960
2017-06-17T07:59:23.725Z,990
2017-06-17T08:00:04.635Z,835
2017-06-17T08:00:45.532Z,585
2017-06-17T08:01:26.442Z,740
2017-06-17T08:02:07.343Z,590
2017-06-17T08:02:48.247Z,745
2017-06-17T08:03:29.155Z,680
2017-06-17T08:04:10.081Z,670
2017-06-17T08:04:50.985Z,660
2017-06-17T08:05:31.890Z,625
2017-06-17T08:06:12.799Z,635
2017-06-17T08:06:53.706Z,440
2017-06-17T08:07:34.596Z,305
2017-06-17T08:08:15.504Z,285
2017-06-17T08:08:56.394Z,345
2017-06-17T08:09:37.290Z,435
2017-06-17T08:10:18.181Z,440
2017-06-17T08:10:59.083Z,435
2017-06-17T08:11:39.999Z,390
2017-06-17T08:12:20.905Z,325
2017-06-17T08:13:01.805Z,300
2017-06-17T08:13:42.707Z,330
2017-06-17T08:14:23.611Z,405
2017-06-17T08:15:04.513Z,440
2017-06-17T08:15:45.400Z,405
2017-06-17T08:16:26.305Z,355
2017-06-17T08:17:07.200Z,295
2017-06-17T08:17:48.104Z,255
2017-06-17T08:18:29.013Z,245
2017-06-17T08:19:09.921Z,270
2017-06-17T08:19:50.833Z,290
2017-06-17T08:20:31.714Z,320
2017-06-17T08:21:12.607Z,300
2017-06-17T08:21:53.502Z,295
2017-06-17T08:22:34.393Z,290
2017-06-17T08:23:15.302Z,305
2017-06-17T08:23:56.213Z,370
2017-06-17T08:24:37.095Z,495
2017-06-17T08:25:17.981Z,410
2017-06-17T08:25:58.906Z,375
2017-06-17T08:26:39.769Z,400
2017-06-17T08:27:20.669Z,445
2017-06-17T08:28:01.562Z,590
2017-06-17T08:28:42.469Z,1200
2017-06-17T08:29:23.358Z,1260
2017-06-17T08:30:04.254Z,1940
2017-06-17T08:30:45.146Z,750
2017-06-17T08:31:26.048Z,640
2017-06-17T08:32:06.936Z,1490
2017-06-17T08:32:47.820Z,810
2017-06-17T08:33:28.707Z,1220
2017-06-17T08:34:09.592Z,800
2017-06-17T08:34:50.497Z,855
2017-06-17T08:35:31.391Z,2560
2017-06-17T08:36:12.314Z,2835
2017-06-17T08:36:53.302Z,2290
2017-06-17T08:37:34.173Z,2840
2017-06-17T08:38:15.064Z,820
2017-06-17T08:38:55.954Z,835
2017-06-17T08:39:36.850Z,2930
2017-06-17T08:40:17.746Z,3985
2017-06-17T08:40:58.645Z,735
2017-06-17T08:41:39.540Z,605
2017-06-17T08:42:20.441Z,970
2017-06-17T08:43:01.383Z,3475
2017-06-17T08:43:42.290Z,2740
2017-06-17T08:44:23.178Z,865
2017-06-17T08:45:04.082Z,740
2017-06-17T08:45:44.991Z,1210
2017-06-17T08:46:25.872Z,985
2017-06-17T08:47:06.785Z,1015
2017-06-17T08:47:47.685Z,905
2017-06-17T08:48:28.606Z,965
2017-06-17T08:49:09.505Z,1005
2017-06-17T08:49:50.403Z,830
2017-06-17T08:50:31.301Z,1460
2017-06-17T08:51:12.190Z,730
2017-06-17T08:51:53.077Z,590
2017-06-17T08:52:33.961Z,525
2017-06-17T08:53:14.848Z,610
2017-06-17T08:53:55.743Z,680
2017-06-17T08:54:36.631Z,575
2017-06-17T08:55:17.547Z,710
2017-06-17T08:55:58.452Z,685
2017-06-17T08:56:39.355Z,680
2017-06-17T08:57:20.261Z,960
2017-06-17T08:58:01.185Z,1950
2017-06-17T08:58:42.088Z,3480
2017-06-17T08:59:22.982Z,3200
2017-06-17T09:00:03.881Z,1800
2017-06-17T09:00:44.784Z,3630
2017-06-17T09:01:25.662Z,2865
2017-06-17T09:02:06.565Z,3925
2017-06-17T09:02:47.445Z,3915
2017-06-17T09:03:28.375Z,4005
2017-06-17T09:04:09.287Z,2200
2017-06-17T09:04:50.156Z,4020
2017-06-17T09:05:31.057Z,2690
2017-06-17T09:06:11.958Z,2530
2017-06-17T09:06:52.867Z,1270
2017-06-17T09:07:33.762Z,1100
2017-06-17T09:08:14.657Z,2930
2017-06-17T09:08:55.545Z,4055
2017-06-17T09:09:36.465Z,3890
2017-06-17T09:11:30.114Z,1885
2017-06-17T09:12:11.036Z,3205
2017-06-17T09:12:51.932Z,1915
2017-06-17T09:13:32.847Z,4080
2017-06-17T09:14:13.740Z,4220
2017-06-17T09:14:54.635Z,4140
2017-06-17T09:15:35.531Z,4325
2017-06-17T09:16:16.435Z,2175
2017-06-17T09:16:57.332Z,1855
2017-06-17T09:17:38.235Z,1425
2017-06-17T09:18:19.119Z,1305
2017-06-17T09:19:00.021Z,840
2017-06-17T09:19:40.907Z,830
2017-06-17T09:20:21.805Z,595
2017-06-17T09:21:02.706Z,515
2017-06-17T09:21:43.599Z,550
2017-06-17T09:22:24.502Z,545
2017-06-17T09:23:05.411Z,500
2017-06-17T09:23:46.302Z,525
2017-06-17T09:24:27.209Z,530
2017-06-17T09:25:08.096Z,485
2017-06-17T09:25:48.999Z,520
2017-06-17T09:26:29.922Z,840
2017-06-17T09:27:10.834Z,715
2017-06-17T09:27:51.744Z,715
2017-06-17T09:28:32.668Z,1205
2017-06-17T09:29:13.564Z,875
2017-06-17T09:29:54.460Z,700
2017-06-17T09:30:35.359Z,665
2017-06-17T09:31:16.272Z,620
2017-06-17T09:31:57.160Z,640
2017-06-17T09:32:38.051Z,665
2017-06-17T09:33:18.954Z,630
2017-06-17T09:33:59.856Z,915
2017-06-17T09:34:40.744Z,925
2017-06-17T09:35:21.675Z,1060
2017-06-17T09:36:02.585Z,1250
2017-06-17T09:36:43.500Z,1750
2017-06-17T09:37:24.381Z,1015
2017-06-17T09:38:05.322Z,1530
2017-06-17T09:38:46.244Z,1915
2017-06-17T09:39:27.127Z,3905
2017-06-17T09:40:08.095Z,2785
2017-06-17T09:40:48.998Z,1435
2017-06-17T09:41:29.887Z,1150
2017-06-17T09:42:10.788Z,1090
2017-06-17T09:42:51.705Z,1780
2017-06-17T09:43:32.587Z,875
2017-06-17T09:44:13.491Z,890
2017-06-17T09:44:54.394Z,765
2017-06-17T09:45:35.285Z,650
2017-06-17T09:46:16.175Z,1000
2017-06-17T09:46:57.076Z,560